createdAt,value
2023-01-27T00:00:35.940Z,0.60
2023-01-27T00:03:37.675Z,0.50
2023-01-27T00:06:39.314Z,0.60
2023-01-27T00:09:41.858Z,0.50
2023-01-27T00:13:03.709Z,0.50
2023-01-27T00:16:05.714Z,0.50
2023-01-27T00:19:07.383Z,0.50
2023-01-27T00:22:35.697Z,0.50
2023-01-27T00:25:37.536Z,0.60
2023-01-27T00:28:40.694Z,0.60
2023-01-27T00:32:01.105Z,0.60
2023-01-27T00:35:02.812Z,0.60
2023-01-27T00:38:04.483Z,0.50
2023-01-27T00:41:15.267Z,0.50
2023-01-27T00:44:16.981Z,0.50
2023-01-27T00:47:18.608Z,0.50
2023-01-27T00:50:21.050Z,0.60
2023-01-27T00:53:22.998Z,0.50
2023-01-27T00:56:24.709Z,0.60
2023-01-27T00:59:26.376Z,0.60
2023-01-27T01:02:28.252Z,0.60
2023-01-27T01:05:29.999Z,0.60
2023-01-27T01:08:33.338Z,0.60
2023-01-27T01:11:34.991Z,0.60
2023-01-27T01:14:37.966Z,0.70
2023-01-27T01:17:39.646Z,0.70
2023-01-27T01:20:45.986Z,0.70
2023-01-27T01:23:47.699Z,0.70
2023-01-27T01:26:49.469Z,0.70
2023-01-27T01:29:51.199Z,0.80
2023-01-27T01:32:54.238Z,0.80
2023-01-27T01:35:55.896Z,0.80
2023-01-27T01:38:58.013Z,0.70
2023-01-27T01:42:00.250Z,0.70
2023-01-27T01:45:39.607Z,0.70
2023-01-27T01:48:50.485Z,0.70
2023-01-27T01:51:56.116Z,0.80
2023-01-27T01:54:58.343Z,0.80
2023-01-27T01:58:01.670Z,0.70
2023-01-27T02:01:05.735Z,0.70
2023-01-27T02:04:19.464Z,0.70
2023-01-27T02:07:34.455Z,0.70
2023-01-27T02:10:36.165Z,0.70
2023-01-27T02:13:39.350Z,0.70
2023-01-27T02:16:41.511Z,0.70
2023-01-27T02:19:55.177Z,0.70
2023-01-27T02:23:11.295Z,0.70
2023-01-27T02:26:20.927Z,0.70
2023-01-27T02:29:22.910Z,0.70
2023-01-27T02:32:28.002Z,0.70
2023-01-27T02:35:41.432Z,0.80
2023-01-27T02:38:53.678Z,0.80
2023-01-27T02:41:57.797Z,0.90
2023-01-27T02:44:59.548Z,0.90
2023-01-27T02:48:01.257Z,0.90
2023-01-27T02:51:02.999Z,0.80
2023-01-27T02:54:04.814Z,0.80
2023-01-27T02:57:06.993Z,0.80
2023-01-27T03:00:13.102Z,0.80
2023-01-27T03:03:14.848Z,0.90
2023-01-27T03:06:17.200Z,0.90
2023-01-27T03:09:19.239Z,0.90
2023-01-27T03:12:20.986Z,0.90
2023-01-27T03:15:41.244Z,0.80
2023-01-27T03:18:47.847Z,0.80
2023-01-27T03:21:52.834Z,0.80
2023-01-27T03:24:54.774Z,0.80
2023-01-27T03:27:57.365Z,0.80
2023-01-27T03:31:21.706Z,0.80
2023-01-27T03:34:23.480Z,0.80
2023-01-27T03:37:44.176Z,0.80
2023-01-27T03:41:04.814Z,0.90
2023-01-27T03:44:25.275Z,0.90
2023-01-27T03:47:27.251Z,0.90
2023-01-27T03:50:37.641Z,0.80
2023-01-27T03:53:39.657Z,0.80
2023-01-27T03:56:41.352Z,0.80
2023-01-27T03:59:43.133Z,0.80
2023-01-27T04:03:03.205Z,0.90
2023-01-27T04:06:25.105Z,0.90
2023-01-27T04:09:35.195Z,0.80
2023-01-27T04:12:36.931Z,0.80
2023-01-27T04:15:38.643Z,0.80
2023-01-27T04:18:40.300Z,0.80
2023-01-27T04:21:41.964Z,0.90
2023-01-27T04:24:44.171Z,0.90
2023-01-27T04:27:45.816Z,0.90
2023-01-27T04:30:47.661Z,0.90
2023-01-27T04:33:49.598Z,0.90
2023-01-27T04:36:51.523Z,0.90
2023-01-27T04:39:53.172Z,0.90
2023-01-27T04:42:54.897Z,0.90
2023-01-27T04:45:56.618Z,0.90
2023-01-27T04:48:58.345Z,0.90
2023-01-27T04:52:00.076Z,0.90
2023-01-27T04:55:01.754Z,0.90
2023-01-27T04:58:04.999Z,1.00
2023-01-27T05:01:06.706Z,0.90
2023-01-27T05:04:08.336Z,0.90
2023-01-27T05:07:10.062Z,0.90
2023-01-27T05:10:12.251Z,1.00
2023-01-27T05:13:13.951Z,1.00
2023-01-27T05:16:26.827Z,1.00
2023-01-27T05:19:28.827Z,1.00
2023-01-27T05:22:30.483Z,1.00
2023-01-27T05:25:32.131Z,1.00
2023-01-27T05:28:35.492Z,1.00
2023-01-27T05:31:37.437Z,1.00
2023-01-27T05:34:39.136Z,1.00
2023-01-27T05:37:40.824Z,1.00
2023-01-27T05:40:42.497Z,1.00
2023-01-27T05:43:47.560Z,1.00
2023-01-27T05:46:49.365Z,0.90
2023-01-27T05:49:51.106Z,1.00
2023-01-27T05:52:52.769Z,0.90
2023-01-27T05:55:54.557Z,0.90
2023-01-27T05:58:57.998Z,1.00
2023-01-27T06:01:59.756Z,0.90
2023-01-27T06:05:01.593Z,0.90
2023-01-27T06:08:03.351Z,0.90
2023-01-27T06:11:05.828Z,1.00
2023-01-27T06:14:07.950Z,1.00
2023-01-27T06:17:09.692Z,1.00
2023-01-27T06:20:11.797Z,1.10
2023-01-27T06:23:15.859Z,1.10
2023-01-27T06:26:19.435Z,1.10
2023-01-27T06:29:22.140Z,1.10
2023-01-27T06:32:23.817Z,1.00
2023-01-27T06:35:25.535Z,1.00
2023-01-27T06:38:27.265Z,1.10
2023-01-27T06:41:28.960Z,1.00
2023-01-27T06:44:30.762Z,1.10
2023-01-27T06:47:32.458Z,1.10
2023-01-27T06:50:34.513Z,1.10
2023-01-27T06:53:37.549Z,1.00
2023-01-27T06:56:39.272Z,1.10
2023-01-27T06:59:41.377Z,1.10
2023-01-27T07:02:44.385Z,1.10
2023-01-27T07:05:46.110Z,1.10
2023-01-27T07:08:50.282Z,1.10
2023-01-27T07:11:53.308Z,1.10
2023-01-27T07:14:54.956Z,1.20
2023-01-27T07:17:58.915Z,1.20
2023-01-27T07:21:00.657Z,1.20
2023-01-27T07:24:02.372Z,1.10
2023-01-27T07:27:04.113Z,1.20
2023-01-27T07:30:08.554Z,1.20
2023-01-27T07:33:15.177Z,1.20
2023-01-27T07:36:16.826Z,1.20
2023-01-27T07:39:18.450Z,1.20
2023-01-27T07:42:20.085Z,1.30
2023-01-27T07:45:21.871Z,1.30
2023-01-27T07:48:23.607Z,1.30
2023-01-27T07:51:27.262Z,1.30
2023-01-27T07:54:28.970Z,1.40
2023-01-27T07:57:30.763Z,1.30
2023-01-27T08:00:32.791Z,1.40
2023-01-27T08:03:34.624Z,1.40
2023-01-27T08:06:39.455Z,1.40
2023-01-27T08:09:41.153Z,1.40
2023-01-27T08:12:43.730Z,1.40
2023-01-27T08:15:46.892Z,1.30
2023-01-27T08:18:48.594Z,1.40
2023-01-27T08:21:50.364Z,1.40
2023-01-27T08:24:52.164Z,1.50
2023-01-27T08:27:56.159Z,1.60
2023-01-27T08:31:12.514Z,1.60
2023-01-27T08:34:15.043Z,1.60
2023-01-27T08:37:16.756Z,1.60
2023-01-27T08:40:18.944Z,1.60
2023-01-27T08:43:20.828Z,1.60
2023-01-27T08:46:22.678Z,1.60
2023-01-27T08:49:24.554Z,1.60
2023-01-27T08:52:27.610Z,1.60
2023-01-27T08:55:31.407Z,1.70
2023-01-27T08:58:33.616Z,1.70
2023-01-27T09:01:35.333Z,1.70
2023-01-27T09:04:41.231Z,1.80
2023-01-27T09:07:44.887Z,1.80
2023-01-27T09:10:49.712Z,1.80
2023-01-27T09:13:51.428Z,1.80
2023-01-27T09:16:53.174Z,1.80
2023-01-27T09:19:56.161Z,1.80
2023-01-27T09:22:58.266Z,1.80
2023-01-27T09:26:00.237Z,1.90
2023-01-27T09:29:01.866Z,1.90
2023-01-27T09:32:04.023Z,2.00
2023-01-27T09:35:06.306Z,2.00
2023-01-27T09:38:09.021Z,2.10
2023-01-27T09:41:29.381Z,2.20
2023-01-27T09:44:48.409Z,2.20
2023-01-27T09:48:21.402Z,2.20
2023-01-27T09:51:52.372Z,2.30
2023-01-27T09:55:03.994Z,2.30
2023-01-27T09:58:26.404Z,2.50
2023-01-27T10:01:48.457Z,2.50
2023-01-27T10:05:28.254Z,2.60
2023-01-27T10:08:39.122Z,2.60
2023-01-27T10:11:49.975Z,2.70
2023-01-27T10:15:31.738Z,2.70
2023-01-27T10:19:20.916Z,2.70
2023-01-27T10:22:39.689Z,2.70
2023-01-27T10:26:05.647Z,2.70
2023-01-27T10:29:21.337Z,2.70
2023-01-27T10:33:03.763Z,2.80
2023-01-27T10:36:15.915Z,2.80
2023-01-27T10:39:53.335Z,2.80
2023-01-27T10:43:10.853Z,2.70
2023-01-27T10:46:52.008Z,2.70
2023-01-27T10:49:59.567Z,2.50
2023-01-27T10:53:13.880Z,2.60
2023-01-27T10:56:27.823Z,2.80
2023-01-27T11:00:34.111Z,2.80
2023-01-27T11:03:35.912Z,2.80
2023-01-27T11:06:41.002Z,2.80
2023-01-27T11:09:56.780Z,2.80
2023-01-27T11:12:59.856Z,2.90
2023-01-27T11:16:02.878Z,2.80
2023-01-27T11:19:42.722Z,2.80
2023-01-27T11:23:05.064Z,2.90
2023-01-27T11:26:38.361Z,3.10
2023-01-27T11:29:53.812Z,3.20
2023-01-27T11:33:13.565Z,3.20
2023-01-27T11:36:15.337Z,3.30
2023-01-27T11:39:18.768Z,3.30
2023-01-27T11:42:21.361Z,3.40
2023-01-27T11:45:24.061Z,3.30
2023-01-27T11:48:41.456Z,3.30
2023-01-27T11:51:43.272Z,3.30
2023-01-27T11:54:53.731Z,3.30
2023-01-27T11:58:16.265Z,3.30
2023-01-27T12:01:21.709Z,3.30
2023-01-27T12:04:45.278Z,3.40
2023-01-27T12:07:55.488Z,3.40
2023-01-27T12:11:19.091Z,3.40
2023-01-27T12:14:23.840Z,3.40
2023-01-27T12:17:45.568Z,3.40
2023-01-27T12:20:57.603Z,3.40
2023-01-27T12:24:00.154Z,3.30
2023-01-27T12:27:04.055Z,3.30
2023-01-27T12:30:13.894Z,3.30
2023-01-27T12:33:29.009Z,3.30
2023-01-27T12:36:40.746Z,3.20
2023-01-27T12:39:49.133Z,3.10
2023-01-27T12:43:11.071Z,3.10
2023-01-27T12:46:19.499Z,3.00
2023-01-27T12:49:21.280Z,3.00
2023-01-27T12:52:22.996Z,3.00
2023-01-27T12:55:36.235Z,3.00
2023-01-27T12:58:54.324Z,2.90
2023-01-27T13:02:19.675Z,3.00
2023-01-27T13:05:21.460Z,2.90
2023-01-27T13:08:27.520Z,2.90
2023-01-27T13:11:40.142Z,2.90
2023-01-27T13:14:43.059Z,2.80
2023-01-27T13:17:50.497Z,2.80
2023-01-27T13:20:59.071Z,2.80
2023-01-27T13:24:06.337Z,2.80
2023-01-27T13:27:17.270Z,2.80
2023-01-27T13:30:28.779Z,2.70
2023-01-27T13:33:51.855Z,2.70
2023-01-27T13:37:18.419Z,2.70
2023-01-27T13:40:43.665Z,2.70
2023-01-27T13:43:53.218Z,2.60
2023-01-27T13:47:00.363Z,2.60
2023-01-27T13:50:30.913Z,2.60
2023-01-27T13:53:33.133Z,2.60
2023-01-27T13:56:37.609Z,2.60
2023-01-27T14:00:00.905Z,2.60
2023-01-27T14:04:00.089Z,2.60
2023-01-27T14:07:13.480Z,2.60
2023-01-27T14:10:34.109Z,2.60
2023-01-27T14:14:00.442Z,2.60
2023-01-27T14:17:29.575Z,2.50
2023-01-27T14:20:49.328Z,2.50
2023-01-27T14:24:05.975Z,2.60
2023-01-27T14:27:31.431Z,2.60
2023-01-27T14:30:41.250Z,2.50
2023-01-27T14:34:17.683Z,2.50
2023-01-27T14:37:35.636Z,2.50
2023-01-27T14:41:06.434Z,2.50
2023-01-27T14:44:44.247Z,2.40
2023-01-27T14:48:23.105Z,2.40
2023-01-27T14:51:35.569Z,2.40
2023-01-27T14:55:17.103Z,2.30
2023-01-27T14:58:37.556Z,2.30
2023-01-27T15:02:12.970Z,2.30
2023-01-27T15:05:43.339Z,2.20
2023-01-27T15:09:03.352Z,2.20
2023-01-27T15:12:30.982Z,2.20
2023-01-27T15:15:33.660Z,2.20
2023-01-27T15:18:59.925Z,2.20
2023-01-27T15:22:54.868Z,2.20
2023-01-27T15:26:06.572Z,2.20
2023-01-27T15:29:13.700Z,2.10
2023-01-27T15:32:15.430Z,2.20
2023-01-27T15:35:30.020Z,2.10
2023-01-27T15:38:33.810Z,2.10
2023-01-27T15:42:10.183Z,2.00
2023-01-27T15:45:32.055Z,2.00
2023-01-27T15:48:39.202Z,2.00
2023-01-27T15:51:41.087Z,2.00
2023-01-27T15:54:44.935Z,2.00
2023-01-27T15:57:46.611Z,2.00
2023-01-27T16:00:54.782Z,2.00
2023-01-27T16:04:21.721Z,2.00
2023-01-27T16:07:36.226Z,1.90
2023-01-27T16:10:40.856Z,1.90
2023-01-27T16:13:42.563Z,1.90
2023-01-27T16:16:50.280Z,1.90
2023-01-27T16:20:17.169Z,1.90
2023-01-27T16:23:25.207Z,1.80
2023-01-27T16:26:36.400Z,1.80
2023-01-27T16:30:04.429Z,1.80
2023-01-27T16:33:27.782Z,1.80
2023-01-27T16:36:35.365Z,1.90
2023-01-27T16:39:53.875Z,1.90
2023-01-27T16:43:13.400Z,1.90
2023-01-27T16:46:36.307Z,1.90
2023-01-27T16:49:50.282Z,1.90
2023-01-27T16:52:52.064Z,1.90
2023-01-27T16:56:05.344Z,1.90
2023-01-27T16:59:10.239Z,1.90
2023-01-27T17:02:22.196Z,1.90
2023-01-27T17:05:24.127Z,1.90
2023-01-27T17:08:27.954Z,1.80
2023-01-27T17:11:32.879Z,1.80
2023-01-27T17:14:41.056Z,1.70
2023-01-27T17:17:43.451Z,1.70
2023-01-27T17:20:50.481Z,1.60
2023-01-27T17:23:52.790Z,1.60
2023-01-27T17:27:06.061Z,1.50
2023-01-27T17:30:26.271Z,1.50
2023-01-27T17:33:28.721Z,1.40
2023-01-27T17:36:30.569Z,1.50
2023-01-27T17:39:32.654Z,1.40
2023-01-27T17:42:34.401Z,1.40
2023-01-27T17:45:36.710Z,1.40
2023-01-27T17:49:04.424Z,1.40
2023-01-27T17:52:10.151Z,1.40
2023-01-27T17:55:24.433Z,1.40
2023-01-27T17:58:28.137Z,1.40
2023-01-27T18:01:30.840Z,1.40
2023-01-27T18:04:39.375Z,1.40
2023-01-27T18:07:41.146Z,1.40
2023-01-27T18:10:46.102Z,1.40
2023-01-27T18:13:53.918Z,1.40
2023-01-27T18:17:23.125Z,1.40
2023-01-27T18:20:31.188Z,1.40
2023-01-27T18:23:55.710Z,1.40
2023-01-27T18:26:57.583Z,1.40
2023-01-27T18:30:13.071Z,1.40
2023-01-27T18:33:16.092Z,1.40
2023-01-27T18:36:25.099Z,1.40
2023-01-27T18:39:39.073Z,1.40
2023-01-27T18:42:40.873Z,1.40
2023-01-27T18:45:47.303Z,1.40
2023-01-27T18:48:49.079Z,1.40
2023-01-27T18:51:50.884Z,1.40
2023-01-27T18:54:58.489Z,1.40
2023-01-27T18:58:00.757Z,1.40
2023-01-27T19:01:04.013Z,1.40
2023-01-27T19:04:11.699Z,1.40
2023-01-27T19:07:15.996Z,1.40
2023-01-27T19:10:28.249Z,1.40
2023-01-27T19:13:30.009Z,1.40
2023-01-27T19:16:33.589Z,1.40
2023-01-27T19:19:35.385Z,1.40
2023-01-27T19:22:37.077Z,1.40
2023-01-27T19:25:38.845Z,1.40
2023-01-27T19:28:40.598Z,1.40
2023-01-27T19:31:42.356Z,1.40
2023-01-27T19:34:44.069Z,1.30
2023-01-27T19:37:46.337Z,1.30
2023-01-27T19:40:48.099Z,1.40
2023-01-27T19:43:50.086Z,1.30
2023-01-27T19:46:51.881Z,1.30
2023-01-27T19:49:53.603Z,1.30
2023-01-27T19:52:55.383Z,1.30
2023-01-27T19:55:58.882Z,1.40
2023-01-27T19:59:01.276Z,1.30
2023-01-27T20:02:03.106Z,1.30
2023-01-27T20:05:05.246Z,1.30
2023-01-27T20:08:12.714Z,1.20
2023-01-27T20:11:33.039Z,1.20
2023-01-27T20:14:34.668Z,1.10
2023-01-27T20:17:36.345Z,1.20
2023-01-27T20:20:38.070Z,1.20
2023-01-27T20:23:41.826Z,1.10
2023-01-27T20:26:43.550Z,1.10
2023-01-27T20:29:46.463Z,1.10
2023-01-27T20:32:48.532Z,1.20
2023-01-27T20:35:50.263Z,1.20
2023-01-27T20:38:52.660Z,1.10
2023-01-27T20:41:54.463Z,1.10
2023-01-27T20:44:56.271Z,1.10
2023-01-27T20:47:59.339Z,1.20
2023-01-27T20:51:04.726Z,1.20
2023-01-27T20:54:06.481Z,1.10
2023-01-27T20:57:08.242Z,1.10
2023-01-27T21:00:21.342Z,1.00
2023-01-27T21:03:23.072Z,1.00
2023-01-27T21:06:24.839Z,0.90
2023-01-27T21:09:26.484Z,0.90
2023-01-27T21:12:29.375Z,0.90
2023-01-27T21:15:31.196Z,0.90
2023-01-27T21:18:33.037Z,0.90
2023-01-27T21:21:34.766Z,0.90
2023-01-27T21:24:36.833Z,0.90
2023-01-27T21:27:38.651Z,0.90
2023-01-27T21:30:40.449Z,0.90
2023-01-27T21:33:45.708Z,0.90
2023-01-27T21:36:47.363Z,0.90
2023-01-27T21:39:58.271Z,0.90
2023-01-27T21:43:18.343Z,0.90
2023-01-27T21:46:20.213Z,0.90
2023-01-27T21:49:21.908Z,0.90
2023-01-27T21:52:34.899Z,0.90
2023-01-27T21:55:36.634Z,0.80
2023-01-27T21:58:38.446Z,0.80
2023-01-27T22:01:40.320Z,0.80
2023-01-27T22:04:43.411Z,0.80
2023-01-27T22:07:45.412Z,0.80
2023-01-27T22:10:47.326Z,0.80
2023-01-27T22:13:49.028Z,0.80
2023-01-27T22:16:50.834Z,0.80
2023-01-27T22:19:52.507Z,0.80
2023-01-27T22:22:54.675Z,0.80
2023-01-27T22:25:56.388Z,0.80
2023-01-27T22:28:58.074Z,0.70
2023-01-27T22:31:59.821Z,0.80
2023-01-27T22:35:01.501Z,0.80
2023-01-27T22:38:03.194Z,0.70
2023-01-27T22:41:04.895Z,0.80
2023-01-27T22:44:07.939Z,0.80
2023-01-27T22:47:09.644Z,0.80
2023-01-27T22:50:30.531Z,0.80
2023-01-27T22:53:32.746Z,0.80
2023-01-27T22:56:34.414Z,0.70
2023-01-27T22:59:36.074Z,0.70
2023-01-27T23:02:37.791Z,0.70
2023-01-27T23:05:39.425Z,0.70
2023-01-27T23:08:41.069Z,0.70
2023-01-27T23:11:42.864Z,0.70
2023-01-27T23:14:44.539Z,0.70
2023-01-27T23:17:48.652Z,0.70
2023-01-27T23:20:50.893Z,0.70
2023-01-27T23:23:52.672Z,0.60
2023-01-27T23:26:54.355Z,0.60
2023-01-27T23:29:56.027Z,0.60
2023-01-27T23:32:57.702Z,0.60
2023-01-27T23:35:59.375Z,0.60
2023-01-27T23:39:01.090Z,0.60
2023-01-27T23:42:02.845Z,0.60
2023-01-27T23:45:04.965Z,0.60
2023-01-27T23:48:06.657Z,0.60
2023-01-27T23:51:09.955Z,0.60
2023-01-27T23:54:11.602Z,0.50
2023-01-27T23:57:13.302Z,0.50
